aviador You're here:

MMMZ Decoded Metar

MAZATLAN in MEXICO
Report Time2018-07-22 06:42:00
UTC Time2018-07-22 07:09:41
Flight Rules vfr VFR
Wind320° at 04 kt
W.Decomp.*RWY 26: 2.5 kt HW 3.1 kt RCW
W.Rank320° ranks 20
Current wind is below 320° avg. (6.2)
Visibility9999 m
Phenomena:N/A
Clouds:Scattered 040 Hf
Broken 080 Hf
Overcast 220 Hf
Expected CloudBase > 1,600 ft AGL from Temp-Dew spread
Ceiling8,000 ft
Temp30°C (ISA +15)
Dew Point26°C (79% RH)
Heat Index37.4°C
QNH1012 hPa
Density Alt2,231 ft
Elevation33 ft
Report Wrong Elevation
Raw Report
METAR MMMZ 220642Z 32004KT 10SM SCT040 BKN080 OVC220 30/26 A2989 RMK
8/477=

Extra information for MMMZ:More info

Metar Taf Metar & Taf Last 4 Metars F.Rules Stats Wind Profile Meteogram Temp Stats Airport Information Weather charts Add Link Nearby VenuesMetar ALERT Operation Metar Decoded Social comments